createdAt,value
2017-09-25T13:17:24.025Z,17.80
2017-09-25T13:19:51.708Z,17.80
2017-09-25T13:22:19.397Z,18.10
2017-09-25T13:24:47.367Z,18.30
2017-09-25T13:27:15.239Z,18.30
2017-09-25T13:29:42.845Z,18.50
2017-09-25T13:32:10.530Z,18.60
2017-09-25T13:34:38.166Z,18.40
2017-09-25T13:37:05.844Z,18.50
2017-09-25T13:39:33.543Z,18.50
2017-09-25T13:42:01.159Z,18.90
2017-09-25T13:44:28.827Z,18.70
2017-09-25T13:46:56.460Z,18.70
2017-09-25T13:49:24.864Z,18.80
2017-09-25T13:51:52.538Z,18.80
2017-09-25T13:54:20.526Z,19.00
2017-09-25T13:56:48.434Z,18.80
2017-09-25T14:04:24.211Z,18.70
2017-09-25T14:06:53.116Z,19.30
2017-09-25T14:09:21.048Z,19.20
2017-09-25T14:11:48.777Z,19.10
2017-09-25T14:14:17.490Z,18.60
2017-09-25T14:16:45.291Z,18.50
2017-09-25T14:19:12.989Z,18.40
2017-09-25T14:21:40.650Z,18.90
2017-09-25T14:24:10.061Z,18.90
2017-09-25T14:26:39.274Z,19.10
2017-09-25T14:29:10.117Z,19.10
2017-09-25T14:31:39.024Z,18.60
2017-09-25T14:34:06.926Z,18.30
2017-09-25T14:36:35.533Z,18.60
2017-09-25T14:39:04.710Z,18.50
2017-09-25T14:41:33.286Z,18.00
2017-09-25T14:44:03.403Z,17.90
2017-09-25T14:46:31.743Z,18.20
2017-09-25T14:48:59.376Z,18.00
2017-09-25T14:51:27.832Z,17.60
2017-09-25T14:53:56.305Z,17.60
2017-09-25T14:56:25.061Z,17.40
2017-09-25T14:58:52.782Z,17.40
2017-09-25T15:01:21.424Z,17.20
2017-09-25T15:06:39.294Z,17.20
2017-09-25T15:09:06.907Z,17.00
2017-09-25T15:11:34.580Z,16.80
2017-09-25T15:14:02.313Z,16.60
2017-09-25T15:16:31.228Z,16.80
2017-09-25T15:18:58.849Z,16.70
2017-09-25T15:21:26.508Z,16.50
2017-09-25T15:23:54.216Z,16.50
2017-09-25T15:26:21.880Z,16.70
2017-09-25T15:28:49.478Z,17.00
2017-09-25T15:31:17.679Z,17.10
2017-09-25T15:33:45.315Z,16.80
2017-09-25T15:36:12.911Z,17.00
2017-09-25T15:38:40.556Z,16.80
2017-09-25T15:41:08.413Z,16.70
2017-09-25T15:43:36.029Z,16.90
2017-09-25T15:46:03.633Z,16.90
2017-09-25T15:48:31.248Z,17.00
2017-09-25T15:50:58.868Z,17.10
2017-09-25T15:53:26.493Z,16.90
2017-09-25T15:55:54.088Z,16.70
2017-09-25T15:58:21.716Z,16.50
2017-09-25T16:00:49.308Z,16.30
2017-09-25T16:03:16.894Z,16.00
2017-09-25T16:05:45.271Z,15.90
2017-09-25T16:08:12.894Z,15.90
2017-09-25T16:10:40.502Z,15.80
2017-09-25T16:13:08.177Z,15.70
2017-09-25T16:15:35.789Z,15.90
2017-09-25T16:18:04.010Z,16.00
2017-09-25T16:20:31.694Z,16.00
2017-09-25T16:22:59.361Z,15.80
2017-09-25T16:25:48.218Z,15.80
2017-09-25T16:28:15.820Z,15.60
2017-09-25T16:30:43.441Z,15.40
2017-09-25T16:33:11.058Z,15.30
2017-09-25T16:35:38.675Z,15.10
2017-09-25T16:38:06.280Z,14.90
2017-09-25T16:40:33.892Z,14.70
2017-09-25T16:43:01.513Z,14.60
2017-09-25T16:45:30.190Z,14.50
2017-09-25T16:47:57.771Z,14.40
2017-09-25T16:50:25.395Z,14.40
2017-09-25T16:52:53.004Z,14.30
2017-09-25T16:55:20.607Z,14.30
2017-09-25T16:57:48.639Z,14.10
2017-09-25T17:00:16.228Z,14.10
2017-09-25T17:02:43.838Z,13.80
2017-09-25T17:05:11.464Z,13.80
2017-09-25T17:07:39.070Z,13.70
2017-09-25T17:10:07.456Z,13.20
2017-09-25T17:12:35.062Z,13.20
2017-09-25T17:15:02.662Z,13.00
2017-09-25T17:17:31.045Z,13.00
2017-09-25T17:19:59.425Z,12.80
2017-09-25T17:22:27.777Z,12.60
2017-09-25T17:24:55.390Z,12.60
2017-09-25T17:27:23.039Z,12.50
